Feesburg, Ohio
Current Conditions -  °F | °C
As of 4:15 AM on Wednesday 22 Oct 2014 (Local Time) from KFGX Reporting Station
Overcast Overcast  
Wind Chill: 40°   Ceiling: 4200
Heat Index: 44°   Visibility: 10mi
Dew Point: 39°   Wind: 7mph
Humidity: 81%   Direction: 360°N
Pressure: 30.18"   Gusts: NA
Location:  38.88°N, 84°W
Report Text: KFGX 220815Z AUTO 36006KT 10SM OVC042 07/04 A3018 RMK AO2 T00670037
Loading
Personal Weather Stations






























Interactive Weather Map
Tropical Storm Tracking
New forecast layout! Learn more

10-Day Weather Forecast

Advertisements
Track Severe Weather on mobile